Time;durP1;ratioP1;P1;durP2;ratioP2;P2;SDS_P1;SDS_P2;PMS_P1;PMS_P2;Temp;Humidity;BMP_temperature;BMP_pressure;BME280_temperature;BME280_humidity;BME280_pressure;Samples;Min_cycle;Max_cycle;Signal;HPM_P1;HPM_P2
2023/05/11 00:01:22;;;;;;;28.33;17.70;;;;;;;;;;5015086;28;20462;-69
2023/05/11 00:03:49;;;;;;;30.47;16.60;;;;;;;;;;5014934;28;20940;-69
2023/05/11 00:06:16;;;;;;;28.70;18.30;;;;;;;;;;5015022;28;20447;-69
2023/05/11 00:08:43;;;;;;;29.80;17.80;;;;;;;;;;5015360;28;20468;-69
2023/05/11 00:11:10;;;;;;;36.50;16.97;;;;;;;;;;5015235;28;20531;-69
2023/05/11 00:13:38;;;;;;;27.70;16.30;;;;;;;;;;5015249;28;20445;-69
2023/05/11 00:16:05;;;;;;;34.10;18.87;;;;;;;;;;5015157;28;20451;-69
2023/05/11 00:18:34;;;;;;;28.73;18.43;;;;;;;;;;5014758;28;20457;-69
2023/05/11 00:21:01;;;;;;;29.87;17.47;;;;;;;;;;5015001;28;20454;-69
2023/05/11 00:23:28;;;;;;;29.20;18.47;;;;;;;;;;5014942;28;20443;-69
2023/05/11 00:25:55;;;;;;;28.53;17.80;;;;;;;;;;5014631;28;20447;-69
2023/05/11 00:28:22;;;;;;;30.60;17.87;;;;;;;;;;5014529;28;20451;-69
2023/05/11 00:30:50;;;;;;;32.43;17.70;;;;;;;;;;5014819;28;20473;-69
2023/05/11 00:33:17;;;;;;;33.37;18.37;;;;;;;;;;5014437;28;20953;-69
2023/05/11 00:35:47;;;;;;;29.97;17.03;;;;;;;;;;5014445;28;20932;-69
2023/05/11 00:38:15;;;;;;;31.97;16.67;;;;;;;;;;5014848;28;20505;-69
2023/05/11 00:40:42;;;;;;;31.33;17.57;;;;;;;;;;5014882;28;20458;-69
2023/05/11 00:43:09;;;;;;;29.90;17.30;;;;;;;;;;5014265;28;20452;-69
2023/05/11 00:45:36;;;;;;;24.20;16.30;;;;;;;;;;5015182;28;20881;-69
2023/05/11 00:48:04;;;;;;;22.90;14.80;;;;;;;;;;5014127;28;20477;-69
2023/05/11 00:50:31;;;;;;;23.33;16.43;;;;;;;;;;5014069;28;20492;-69
2023/05/11 00:53:00;;;;;;;30.50;15.97;;;;;;;;;;5014063;28;20503;-69
2023/05/11 00:55:28;;;;;;;24.80;16.43;;;;;;;;;;5014447;28;20484;-69
2023/05/11 00:57:55;;;;;;;23.90;15.00;;;;;;;;;;5013946;28;20506;-69
2023/05/11 01:00:22;;;;;;;18.43;14.00;;;;;;;;;;5014380;28;20444;-69
2023/05/11 01:02:49;;;;;;;22.37;13.40;;;;;;;;;;5014158;28;20452;-69
2023/05/11 01:05:17;;;;;;;21.63;12.70;;;;;;;;;;5014717;28;20448;-70
2023/05/11 01:07:49;;;;;;;19.47;13.23;;;;;;;;;;5014400;28;20446;-69
2023/05/11 01:10:21;;;;;;;19.83;13.57;;;;;;;;;;5013928;28;20480;-69
2023/05/11 01:12:56;;;;;;;18.30;13.07;;;;;;;;;;5014371;28;20461;-69
2023/05/11 01:15:27;;;;;;;19.40;11.80;;;;;;;;;;5014300;28;20787;-69
2023/05/11 01:17:56;;;;;;;17.77;11.97;;;;;;;;;;5013822;28;20951;-69
2023/05/11 01:20:25;;;;;;;18.50;12.30;;;;;;;;;;5014458;28;20447;-69
2023/05/11 01:23:17;;;;;;;17.33;12.30;;;;;;;;;;5014081;28;20464;-69
2023/05/11 01:25:54;;;;;;;18.17;10.80;;;;;;;;;;4994387;28;20451;-69
2023/05/11 01:28:26;;;;;;;13.43;10.00;;;;;;;;;;5013576;28;20441;-69
2023/05/11 01:30:56;;;;;;;13.03;10.50;;;;;;;;;;5013510;28;20485;-69
2023/05/11 01:33:26;;;;;;;12.10;10.47;;;;;;;;;;5014082;28;20442;-69
2023/05/11 01:35:55;;;;;;;12.97;9.33;;;;;;;;;;5013526;28;20435;-69
2023/05/11 01:38:23;;;;;;;13.90;9.80;;;;;;;;;;5013306;28;20480;-70
2023/05/11 01:40:53;;;;;;;15.37;10.03;;;;;;;;;;5013739;28;20458;-69
2023/05/11 01:43:22;;;;;;;16.67;10.83;;;;;;;;;;5013641;28;20454;-70
2023/05/11 01:45:51;;;;;;;14.97;10.63;;;;;;;;;;5014161;28;20473;-69
2023/05/11 01:48:21;;;;;;;11.90;10.13;;;;;;;;;;5013368;28;20454;-69
2023/05/11 01:50:50;;;;;;;10.53;8.90;;;;;;;;;;5013633;28;20498;-69
2023/05/11 01:53:18;;;;;;;10.73;9.63;;;;;;;;;;5013682;28;20865;-69
2023/05/11 01:55:47;;;;;;;15.60;10.60;;;;;;;;;;5013529;28;20531;-68
2023/05/11 01:58:15;;;;;;;14.10;11.03;;;;;;;;;;5013319;28;20461;-69
2023/05/11 02:00:44;;;;;;;14.47;11.50;;;;;;;;;;5013184;28;20973;-69
2023/05/11 02:03:11;;;;;;;17.37;11.17;;;;;;;;;;5013543;28;20560;-69
2023/05/11 02:05:41;;;;;;;17.90;11.17;;;;;;;;;;5013458;28;20444;-69
2023/05/11 02:08:09;;;;;;;19.60;12.80;;;;;;;;;;5013191;28;20454;-69
2023/05/11 02:10:37;;;;;;;21.40;11.40;;;;;;;;;;5013201;28;20491;-69
2023/05/11 02:13:05;;;;;;;22.57;12.30;;;;;;;;;;5013106;28;20458;-69
2023/05/11 02:15:34;;;;;;;17.03;11.53;;;;;;;;;;5013022;28;20523;-69
2023/05/11 02:18:01;;;;;;;20.37;11.90;;;;;;;;;;5013681;28;20453;-69
2023/05/11 02:20:29;;;;;;;20.97;12.83;;;;;;;;;;5013326;28;20453;-69
2023/05/11 02:22:58;;;;;;;23.37;13.93;;;;;;;;;;5013830;28;20854;-69
2023/05/11 02:25:26;;;;;;;25.60;14.10;;;;;;;;;;5013270;28;20942;-69
2023/05/11 02:27:53;;;;;;;24.00;14.03;;;;;;;;;;5013351;28;20508;-69
2023/05/11 02:30:21;;;;;;;20.53;13.57;;;;;;;;;;5012807;28;20461;-69
2023/05/11 02:32:49;;;;;;;30.53;15.23;;;;;;;;;;5012891;28;20458;-69
2023/05/11 02:35:18;;;;;;;32.57;16.30;;;;;;;;;;5012840;28;20529;-68
2023/05/11 02:37:47;;;;;;;32.10;17.17;;;;;;;;;;5013111;28;20564;-69
2023/05/11 02:40:17;;;;;;;24.63;15.03;;;;;;;;;;5013103;28;20450;-69
2023/05/11 02:42:45;;;;;;;26.10;16.00;;;;;;;;;;5015134;28;20456;-69
2023/05/11 02:45:14;;;;;;;33.83;17.03;;;;;;;;;;5016990;28;20442;-69
2023/05/11 02:47:44;;;;;;;27.90;17.00;;;;;;;;;;5016393;28;20438;-69
2023/05/11 02:50:12;;;;;;;29.47;15.97;;;;;;;;;;5016356;28;20955;-68
2023/05/11 02:52:42;;;;;;;28.23;17.37;;;;;;;;;;5017189;28;20478;-69
2023/05/11 02:55:09;;;;;;;25.20;16.57;;;;;;;;;;5016619;28;20794;-69
2023/05/11 02:57:38;;;;;;;28.77;17.60;;;;;;;;;;5016290;28;20449;-68
2023/05/11 03:00:07;;;;;;;27.47;17.23;;;;;;;;;;5016388;28;20468;-69
2023/05/11 03:02:34;;;;;;;35.13;18.00;;;;;;;;;;5016468;28;20446;-69
2023/05/11 03:05:01;;;;;;;32.47;17.63;;;;;;;;;;5016668;28;20441;-69
2023/05/11 03:07:28;;;;;;;39.27;19.97;;;;;;;;;;5016480;28;20453;-69
2023/05/11 03:09:56;;;;;;;36.43;19.13;;;;;;;;;;5016370;28;20459;-69
2023/05/11 03:12:23;;;;;;;35.70;18.00;;;;;;;;;;5016364;28;20478;-69
2023/05/11 03:14:52;;;;;;;29.40;17.83;;;;;;;;;;5016409;28;20446;-69
2023/05/11 03:17:20;;;;;;;39.47;18.90;;;;;;;;;;5016780;28;20442;-69
2023/05/11 03:19:47;;;;;;;37.40;20.13;;;;;;;;;;5016321;28;20454;-69
2023/05/11 03:22:15;;;;;;;38.50;19.47;;;;;;;;;;5016425;28;20446;-69
2023/05/11 03:24:43;;;;;;;40.97;19.80;;;;;;;;;;5015959;28;20450;-69
2023/05/11 03:27:12;;;;;;;37.30;18.67;;;;;;;;;;5016074;28;20443;-69
2023/05/11 03:29:41;;;;;;;32.83;19.00;;;;;;;;;;5015977;28;20471;-68
2023/05/11 03:32:09;;;;;;;39.53;21.70;;;;;;;;;;5015836;28;20829;-68
2023/05/11 03:34:36;;;;;;;36.20;19.50;;;;;;;;;;5016451;28;20869;-69
2023/05/11 03:37:05;;;;;;;41.97;19.50;;;;;;;;;;5015515;28;20488;-69
2023/05/11 03:39:33;;;;;;;40.23;21.23;;;;;;;;;;5015858;28;20445;-69
2023/05/11 03:42:02;;;;;;;47.73;20.83;;;;;;;;;;5015657;28;20454;-68
2023/05/11 03:44:32;;;;;;;42.00;19.63;;;;;;;;;;5015703;28;20449;-68
2023/05/11 03:47:00;;;;;;;42.20;20.63;;;;;;;;;;5015561;28;20544;-69
2023/05/11 03:49:29;;;;;;;45.63;21.70;;;;;;;;;;5015576;28;20456;-68
2023/05/11 03:51:57;;;;;;;46.73;21.13;;;;;;;;;;5015401;28;20899;-69
2023/05/11 03:54:24;;;;;;;48.27;21.80;;;;;;;;;;5014766;28;20527;-68
2023/05/11 03:56:51;;;;;;;46.20;21.90;;;;;;;;;;5014354;28;20959;-69
2023/05/11 03:59:19;;;;;;;48.50;23.60;;;;;;;;;;5014982;28;20441;-68
2023/05/11 04:01:46;;;;;;;42.10;21.77;;;;;;;;;;5015332;28;20516;-68
2023/05/11 04:04:13;;;;;;;44.47;22.00;;;;;;;;;;5014831;28;20449;-68
2023/05/11 04:06:42;;;;;;;42.20;22.80;;;;;;;;;;5014986;28;20797;-69
2023/05/11 04:09:09;;;;;;;54.07;23.57;;;;;;;;;;5015070;28;20442;-69
2023/05/11 04:11:37;;;;;;;43.77;23.10;;;;;;;;;;5014505;28;20484;-68
2023/05/11 04:14:04;;;;;;;45.53;22.50;;;;;;;;;;5014829;28;20520;-68
2023/05/11 04:16:31;;;;;;;42.00;20.67;;;;;;;;;;5015045;28;20443;-68
2023/05/11 04:18:58;;;;;;;47.17;21.70;;;;;;;;;;5014909;28;20457;-68
2023/05/11 04:21:25;;;;;;;45.07;20.60;;;;;;;;;;5014838;28;20448;-68
2023/05/11 04:23:54;;;;;;;44.20;22.03;;;;;;;;;;5014751;28;20454;-69
2023/05/11 04:26:21;;;;;;;45.63;21.73;;;;;;;;;;5014219;28;20450;-68
2023/05/11 04:28:48;;;;;;;44.90;21.63;;;;;;;;;;5014433;28;20445;-69
2023/05/11 04:31:16;;;;;;;40.57;22.70;;;;;;;;;;5014480;28;20509;-68
2023/05/11 04:33:43;;;;;;;45.27;22.03;;;;;;;;;;5014350;28;20455;-68
2023/05/11 04:36:10;;;;;;;43.87;21.47;;;;;;;;;;5014639;28;20449;-68
2023/05/11 04:38:37;;;;;;;42.57;20.93;;;;;;;;;;5013968;28;20482;-68
2023/05/11 04:41:07;;;;;;;47.80;22.00;;;;;;;;;;5014317;28;20453;-69
2023/05/11 04:43:34;;;;;;;46.50;22.90;;;;;;;;;;5015053;28;20866;-73
2023/05/11 04:46:01;;;;;;;42.20;21.83;;;;;;;;;;5014361;28;20447;-69
2023/05/11 04:48:28;;;;;;;38.97;21.60;;;;;;;;;;5014371;28;20453;-69
2023/05/11 04:50:56;;;;;;;38.50;20.60;;;;;;;;;;5013953;28;20448;-69
2023/05/11 04:53:23;;;;;;;46.03;22.07;;;;;;;;;;5014141;28;21009;-68
2023/05/11 04:55:50;;;;;;;44.00;21.43;;;;;;;;;;5014256;28;20445;-68
2023/05/11 04:58:19;;;;;;;43.03;20.20;;;;;;;;;;5014328;28;20453;-68
2023/05/11 05:00:46;;;;;;;42.67;21.07;;;;;;;;;;5013962;28;20442;-69
2023/05/11 05:03:13;;;;;;;41.63;20.37;;;;;;;;;;5013947;28;20461;-69
2023/05/11 05:05:41;;;;;;;38.33;21.83;;;;;;;;;;5014111;28;20457;-69
2023/05/11 05:08:08;;;;;;;44.43;23.10;;;;;;;;;;5014032;28;20545;-69
2023/05/11 05:10:35;;;;;;;40.50;21.87;;;;;;;;;;5013666;28;20446;-69
2023/05/11 05:13:02;;;;;;;41.80;21.93;;;;;;;;;;5013554;28;20481;-69
2023/05/11 05:15:31;;;;;;;41.23;22.23;;;;;;;;;;5013759;28;20442;-69
2023/05/11 05:17:58;;;;;;;40.20;21.63;;;;;;;;;;5014142;28;20505;-68
2023/05/11 05:20:25;;;;;;;41.67;22.57;;;;;;;;;;5014899;28;20452;-68
2023/05/11 05:22:54;;;;;;;40.60;22.40;;;;;;;;;;5014069;28;20456;-69
2023/05/11 05:25:22;;;;;;;34.60;21.37;;;;;;;;;;5014137;28;20557;-68
2023/05/11 05:27:49;;;;;;;41.30;22.53;;;;;;;;;;5014189;28;20896;-69
2023/05/11 05:30:16;;;;;;;40.60;22.37;;;;;;;;;;5013891;28;20808;-69
2023/05/11 05:32:45;;;;;;;33.17;21.30;;;;;;;;;;5013893;28;20508;-69
2023/05/11 05:35:12;;;;;;;39.70;21.40;;;;;;;;;;5014041;28;20446;-69
2023/05/11 05:37:39;;;;;;;32.33;19.60;;;;;;;;;;5013735;28;20481;-68
2023/05/11 05:40:07;;;;;;;41.87;21.30;;;;;;;;;;5013674;28;20452;-69
2023/05/11 05:42:34;;;;;;;36.90;22.00;;;;;;;;;;5013298;28;20966;-69
2023/05/11 05:45:01;;;;;;;32.60;19.60;;;;;;;;;;5013619;28;20944;-68
2023/05/11 05:47:28;;;;;;;32.63;20.50;;;;;;;;;;5013536;28;20954;-68
2023/05/11 05:49:57;;;;;;;35.50;21.97;;;;;;;;;;5013630;28;20446;-68
2023/05/11 05:52:24;;;;;;;36.90;20.97;;;;;;;;;;5013397;28;20477;-68
2023/05/11 05:54:51;;;;;;;35.00;19.77;;;;;;;;;;5013796;28;20501;-68
2023/05/11 05:57:18;;;;;;;36.10;22.17;;;;;;;;;;5013456;28;20449;-69
2023/05/11 05:59:45;;;;;;;34.83;21.70;;;;;;;;;;5013478;28;20446;-69
2023/05/11 06:02:13;;;;;;;40.70;22.37;;;;;;;;;;5013883;28;20584;-68
2023/05/11 06:04:40;;;;;;;44.53;23.90;;;;;;;;;;5013238;28;20451;-68
2023/05/11 06:07:09;;;;;;;32.63;20.97;;;;;;;;;;5013171;28;20490;-69
2023/05/11 06:09:36;;;;;;;38.80;23.20;;;;;;;;;;5014058;28;20449;-69
2023/05/11 06:12:03;;;;;;;35.53;22.17;;;;;;;;;;5013749;28;20493;-69
2023/05/11 06:14:31;;;;;;;39.40;22.17;;;;;;;;;;5013472;28;20479;-69
2023/05/11 06:16:58;;;;;;;40.23;24.07;;;;;;;;;;5014200;28;20450;-69
2023/05/11 06:19:25;;;;;;;32.57;21.83;;;;;;;;;;5017248;28;20448;-69
2023/05/11 06:21:52;;;;;;;35.23;21.37;;;;;;;;;;5017210;28;20447;-69
2023/05/11 06:24:21;;;;;;;28.70;19.73;;;;;;;;;;5017334;28;20448;-68
2023/05/11 06:26:48;;;;;;;34.87;18.97;;;;;;;;;;5017061;28;20442;-69
2023/05/11 06:29:16;;;;;;;33.10;20.20;;;;;;;;;;5016721;28;20461;-69
2023/05/11 06:31:43;;;;;;;32.50;20.90;;;;;;;;;;5017290;28;20544;-69
2023/05/11 06:34:10;;;;;;;32.40;20.37;;;;;;;;;;5017005;28;20450;-69
2023/05/11 06:36:37;;;;;;;32.97;21.00;;;;;;;;;;5016552;28;20575;-68
2023/05/11 06:39:05;;;;;;;29.13;20.07;;;;;;;;;;5016794;28;20450;-68
2023/05/11 06:41:34;;;;;;;31.43;18.87;;;;;;;;;;5016553;28;20482;-68
2023/05/11 06:44:01;;;;;;;28.40;19.90;;;;;;;;;;5016806;28;20781;-68
2023/05/11 06:46:28;;;;;;;32.13;21.40;;;;;;;;;;5016869;28;20446;-68
2023/05/11 06:48:55;;;;;;;35.43;21.50;;;;;;;;;;5016642;28;20443;-68
2023/05/11 06:51:22;;;;;;;31.27;20.20;;;;;;;;;;5016798;28;20492;-69
2023/05/11 06:53:50;;;;;;;32.50;23.33;;;;;;;;;;5016548;28;20835;-68
2023/05/11 06:56:17;;;;;;;30.73;22.10;;;;;;;;;;5016675;28;20438;-68
2023/05/11 06:58:45;;;;;;;30.60;20.80;;;;;;;;;;5016774;28;20449;-68
2023/05/11 07:01:13;;;;;;;30.13;21.07;;;;;;;;;;5016570;28;20442;-69
2023/05/11 07:03:40;;;;;;;33.70;22.30;;;;;;;;;;5016126;28;20570;-69
2023/05/11 07:06:08;;;;;;;29.20;19.97;;;;;;;;;;5016474;28;20599;-69
2023/05/11 07:08:35;;;;;;;29.87;20.77;;;;;;;;;;5016476;28;20512;-69
2023/05/11 07:11:02;;;;;;;32.40;21.13;;;;;;;;;;5016512;28;20459;-69
2023/05/11 07:13:29;;;;;;;28.27;22.27;;;;;;;;;;5016282;28;20492;-69
2023/05/11 07:15:58;;;;;;;28.37;20.53;;;;;;;;;;5016356;28;20446;-69
2023/05/11 07:18:25;;;;;;;28.97;18.40;;;;;;;;;;5016223;28;20447;-69
2023/05/11 07:20:52;;;;;;;26.87;19.63;;;;;;;;;;5016145;28;20450;-69
2023/05/11 07:23:19;;;;;;;29.10;19.13;;;;;;;;;;5015716;28;20462;-69
2023/05/11 07:25:47;;;;;;;29.20;18.07;;;;;;;;;;5016127;28;20474;-69
2023/05/11 07:28:14;;;;;;;26.07;19.50;;;;;;;;;;5015005;28;20450;-69
2023/05/11 07:30:41;;;;;;;26.03;18.63;;;;;;;;;;5015727;28;20446;-69
2023/05/11 07:33:09;;;;;;;25.23;17.93;;;;;;;;;;5016145;28;20475;-69
2023/05/11 07:35:37;;;;;;;30.20;18.43;;;;;;;;;;5016203;28;20447;-69
2023/05/11 07:38:06;;;;;;;24.17;19.37;;;;;;;;;;5016166;28;20482;-69
2023/05/11 07:40:34;;;;;;;24.97;19.13;;;;;;;;;;5015380;28;20490;-69
2023/05/11 07:43:01;;;;;;;23.83;16.70;;;;;;;;;;5015745;28;20548;-69
2023/05/11 07:45:28;;;;;;;22.97;18.00;;;;;;;;;;5015299;28;20454;-69
2023/05/11 07:47:55;;;;;;;25.40;18.63;;;;;;;;;;5015592;28;20536;-69
2023/05/11 07:50:24;;;;;;;23.83;17.60;;;;;;;;;;5015489;28;20979;-69
2023/05/11 07:52:51;;;;;;;24.23;16.60;;;;;;;;;;5015699;28;20479;-68
2023/05/11 07:55:18;;;;;;;23.30;18.33;;;;;;;;;;5015455;28;20439;-68
2023/05/11 07:57:45;;;;;;;24.70;17.33;;;;;;;;;;5015497;28;20512;-68
2023/05/11 08:00:14;;;;;;;24.13;17.40;;;;;;;;;;5015311;28;20449;-69
2023/05/11 08:02:41;;;;;;;31.80;20.60;;;;;;;;;;5014990;28;20889;-68
2023/05/11 08:05:09;;;;;;;23.83;17.43;;;;;;;;;;5015652;28;20446;-68
2023/05/11 08:07:37;;;;;;;18.90;16.40;;;;;;;;;;5015244;28;20812;-68
2023/05/11 08:10:05;;;;;;;21.57;17.10;;;;;;;;;;5015025;28;20534;-68
2023/05/11 08:12:32;;;;;;;22.63;16.80;;;;;;;;;;5014251;28;20475;-69
2023/05/11 08:14:59;;;;;;;20.93;17.10;;;;;;;;;;5014916;28;20463;-69
2023/05/11 08:17:26;;;;;;;19.20;14.60;;;;;;;;;;5015028;28;20800;-68
2023/05/11 08:19:54;;;;;;;18.43;14.60;;;;;;;;;;5015224;28;20441;-68
2023/05/11 08:22:21;;;;;;;18.20;14.23;;;;;;;;;;5015494;28;20449;-69
2023/05/11 08:24:50;;;;;;;18.17;14.70;;;;;;;;;;5014776;28;20548;-68
2023/05/11 08:27:17;;;;;;;16.83;14.00;;;;;;;;;;5015006;28;20777;-68
2023/05/11 08:29:44;;;;;;;16.90;13.37;;;;;;;;;;5014728;28;20537;-68
2023/05/11 08:32:12;;;;;;;18.40;14.67;;;;;;;;;;5014422;28;20485;-68
2023/05/11 08:34:39;;;;;;;20.07;15.70;;;;;;;;;;5014166;28;20496;-69
2023/05/11 08:37:06;;;;;;;21.20;15.67;;;;;;;;;;5014212;28;20471;-69
2023/05/11 08:39:33;;;;;;;18.83;15.13;;;;;;;;;;5014181;28;20455;-69
2023/05/11 08:42:04;;;;;;;16.60;14.10;;;;;;;;;;5014612;28;20777;-69
2023/05/11 08:44:33;;;;;;;15.77;14.10;;;;;;;;;;5014890;28;20750;-69
2023/05/11 08:47:00;;;;;;;16.77;13.77;;;;;;;;;;5014576;28;20445;-69
2023/05/11 08:49:27;;;;;;;13.37;11.97;;;;;;;;;;5013978;28;20936;-68
2023/05/11 08:51:56;;;;;;;18.67;14.53;;;;;;;;;;5014395;28;20435;-69
2023/05/11 08:54:23;;;;;;;15.90;12.87;;;;;;;;;;5014232;28;20472;-69
2023/05/11 08:56:51;;;;;;;16.47;13.53;;;;;;;;;;5014580;28;20446;-69
2023/05/11 08:59:21;;;;;;;14.30;12.80;;;;;;;;;;5014330;28;20454;-69
2023/05/11 09:01:48;;;;;;;13.40;12.10;;;;;;;;;;5013943;28;20969;-69
2023/05/11 09:04:15;;;;;;;10.90;8.63;;;;;;;;;;5013917;28;20541;-69
2023/05/11 09:06:43;;;;;;;10.67;9.67;;;;;;;;;;5013709;28;20455;-69
2023/05/11 09:09:10;;;;;;;10.37;9.00;;;;;;;;;;5014154;28;20453;-69
2023/05/11 09:11:37;;;;;;;8.80;8.00;;;;;;;;;;5013962;28;20476;-69
2023/05/11 09:14:04;;;;;;;7.67;6.97;;;;;;;;;;5013949;28;20487;-69
2023/05/11 09:16:33;;;;;;;7.90;7.30;;;;;;;;;;5013649;28;20462;-69
2023/05/11 09:19:01;;;;;;;8.20;7.07;;;;;;;;;;5013924;28;20453;-69
2023/05/11 09:21:30;;;;;;;6.87;6.27;;;;;;;;;;5013880;28;20807;-69
2023/05/11 09:23:59;;;;;;;4.90;4.40;;;;;;;;;;5013848;28;20534;-69
2023/05/11 09:26:28;;;;;;;5.53;5.03;;;;;;;;;;5013494;28;20452;-69
2023/05/11 09:28:56;;;;;;;5.20;4.77;;;;;;;;;;5013963;28;20447;-69
2023/05/11 09:31:38;;;;;;;4.60;4.20;;;;;;;;;;5013610;28;20508;-69
2023/05/11 09:34:12;;;;;;;4.17;3.87;;;;;;;;;;5013634;28;20485;-69
2023/05/11 09:36:40;;;;;;;4.50;4.10;;;;;;;;;;5013131;28;20438;-69
2023/05/11 09:39:07;;;;;;;4.70;4.30;;;;;;;;;;5013266;28;20940;-69
2023/05/11 09:41:35;;;;;;;6.17;4.57;;;;;;;;;;5013591;28;20452;-68
2023/05/11 09:44:05;;;;;;;5.13;3.73;;;;;;;;;;5013794;28;20443;-69
2023/05/11 09:46:32;;;;;;;4.50;4.10;;;;;;;;;;5013596;28;20984;-69
2023/05/11 09:49:01;;;;;;;6.10;5.37;;;;;;;;;;5013729;28;20512;-69
2023/05/11 09:51:32;;;;;;;6.00;4.77;;;;;;;;;;5012715;28;20906;-70
2023/05/11 09:54:00;;;;;;;4.80;4.30;;;;;;;;;;5013384;28;20524;-69
2023/05/11 09:56:42;;;;;;;4.97;4.43;;;;;;;;;;5013045;28;20535;-69
2023/05/11 09:59:11;;;;;;;5.20;4.70;;;;;;;;;;5011170;28;20881;-69
2023/05/11 10:01:38;;;;;;;5.20;4.70;;;;;;;;;;5013271;28;20447;-69
2023/05/11 10:04:08;;;;;;;4.10;3.80;;;;;;;;;;5013669;28;20455;-69
2023/05/11 10:06:45;;;;;;;5.07;4.57;;;;;;;;;;5012973;28;20443;-69
2023/05/11 10:09:12;;;;;;;4.87;3.53;;;;;;;;;;5013049;28;20471;-69
2023/05/11 10:11:43;;;;;;;4.47;4.07;;;;;;;;;;5013175;28;20439;-69
2023/05/11 10:14:11;;;;;;;3.93;3.63;;;;;;;;;;5013510;28;20471;-69
2023/05/11 10:16:39;;;;;;;4.50;4.10;;;;;;;;;;5013193;28;20443;-69
2023/05/11 10:19:08;;;;;;;5.10;4.60;;;;;;;;;;5013285;28;20447;-69
2023/05/11 10:21:35;;;;;;;4.73;4.20;;;;;;;;;;5013061;28;20448;-69
2023/05/11 10:24:03;;;;;;;4.30;3.90;;;;;;;;;;5013195;28;20451;-69
2023/05/11 10:26:31;;;;;;;4.83;4.17;;;;;;;;;;5013237;28;20492;-69
2023/05/11 10:28:59;;;;;;;5.13;4.63;;;;;;;;;;5013254;28;20454;-69
2023/05/11 10:31:27;;;;;;;4.80;4.40;;;;;;;;;;5013464;28;20805;-69
2023/05/11 10:33:54;;;;;;;4.70;4.30;;;;;;;;;;5013377;28;20585;-69
2023/05/11 10:36:23;;;;;;;4.93;4.47;;;;;;;;;;5013409;28;20449;-69
2023/05/11 10:38:51;;;;;;;4.47;4.07;;;;;;;;;;5012839;28;20506;-69
2023/05/11 10:41:31;;;;;;;4.30;4.00;;;;;;;;;;5012983;28;20524;-69
2023/05/11 10:44:08;;;;;;;3.63;3.33;;;;;;;;;;5012846;28;20446;-69
2023/05/11 10:46:46;;;;;;;5.33;4.07;;;;;;;;;;5013315;28;20513;-69
2023/05/11 10:49:28;;;;;;;5.00;4.50;;;;;;;;;;5013304;28;20429;-68
2023/05/11 10:52:05;;;;;;;4.60;4.20;;;;;;;;;;5013106;28;20441;-68
2023/05/11 10:54:42;;;;;;;4.10;3.80;;;;;;;;;;5013263;28;20480;-68
2023/05/11 10:57:13;;;;;;;4.40;4.10;;;;;;;;;;5013159;28;20843;-68
2023/05/11 10:59:46;;;;;;;4.50;4.20;;;;;;;;;;5012851;28;20924;-69
2023/05/11 11:02:13;;;;;;;5.70;5.30;;;;;;;;;;5013108;28;20437;-68
2023/05/11 11:04:44;;;;;;;4.80;4.10;;;;;;;;;;5016278;28;20458;-69
2023/05/11 11:07:16;;;;;;;3.83;3.53;;;;;;;;;;5016419;28;20458;-68
2023/05/11 11:09:51;;;;;;;4.13;3.70;;;;;;;;;;5016474;28;20506;-68
2023/05/11 11:12:18;;;;;;;4.43;4.13;;;;;;;;;;5016214;28;20808;-68
2023/05/11 11:14:55;;;;;;;4.93;4.57;;;;;;;;;;5016122;28;20482;-68
2023/05/11 11:17:24;;;;;;;4.40;4.00;;;;;;;;;;5015815;28;20931;-68
2023/05/11 11:19:51;;;;;;;4.40;4.00;;;;;;;;;;5016630;28;20471;-68
2023/05/11 11:22:37;;;;;;;3.90;3.60;;;;;;;;;;5016011;28;20438;-69
2023/05/11 11:25:06;;;;;;;4.13;3.83;;;;;;;;;;5016018;28;20548;-69
2023/05/11 11:27:55;;;;;;;5.37;4.87;;;;;;;;;;5016260;28;20530;-68
2023/05/11 11:30:24;;;;;;;4.27;3.97;;;;;;;;;;5016484;28;20438;-69
2023/05/11 11:32:52;;;;;;;6.17;4.13;;;;;;;;;;5015866;28;20433;-69
2023/05/11 11:35:38;;;;;;;4.70;4.40;;;;;;;;;;5015820;28;20482;-69
2023/05/11 11:38:05;;;;;;;4.77;4.30;;;;;;;;;;5015867;28;20474;-69
2023/05/11 11:40:37;;;;;;;4.20;3.90;;;;;;;;;;5015398;28;20863;-69
2023/05/11 11:43:11;;;;;;;4.83;4.00;;;;;;;;;;5015627;28;20469;-72
2023/05/11 11:45:39;;;;;;;4.40;4.03;;;;;;;;;;5016513;28;20484;-69
2023/05/11 11:48:21;;;;;;;4.33;4.03;;;;;;;;;;5015811;28;20455;-70
2023/05/11 11:50:49;;;;;;;5.13;4.63;;;;;;;;;;5015508;28;20429;-70
2023/05/11 11:53:35;;;;;;;4.50;4.20;;;;;;;;;;5015121;28;20449;-70
2023/05/11 11:56:04;;;;;;;6.63;6.03;;;;;;;;;;5014507;28;20472;-70
2023/05/11 11:58:58;;;;;;;6.00;5.60;;;;;;;;;;5015219;28;20444;-70
2023/05/11 12:01:26;;;;;;;5.47;5.07;;;;;;;;;;5014828;28;20441;-70
2023/05/11 12:04:12;;;;;;;5.60;5.03;;;;;;;;;;5014794;28;20960;-70
2023/05/11 12:06:39;;;;;;;5.23;4.83;;;;;;;;;;5015442;28;20549;-70
2023/05/11 12:09:07;;;;;;;6.33;5.63;;;;;;;;;;5014893;28;20450;-72
2023/05/11 12:11:35;;;;;;;18.20;15.07;;;;;;;;;;5014634;28;20483;-70
2023/05/11 12:14:03;;;;;;;22.53;13.50;;;;;;;;;;5014447;28;20988;-70
2023/05/11 12:16:31;;;;;;;11.97;8.93;;;;;;;;;;5014636;28;20792;-70
2023/05/11 12:18:58;;;;;;;5.80;5.30;;;;;;;;;;5014738;28;20454;-70
2023/05/11 12:21:27;;;;;;;5.30;4.50;;;;;;;;;;5014746;28;20483;-69
2023/05/11 12:23:54;;;;;;;7.13;4.63;;;;;;;;;;5014453;28;20442;-69
2023/05/11 12:26:22;;;;;;;5.23;4.23;;;;;;;;;;5014948;28;20443;-70
2023/05/11 12:28:51;;;;;;;4.33;4.03;;;;;;;;;;5014697;28;20438;-69
2023/05/11 12:31:19;;;;;;;7.43;6.63;;;;;;;;;;5014321;28;20447;-69
2023/05/11 12:33:46;;;;;;;8.30;5.33;;;;;;;;;;5014597;28;20814;-69
2023/05/11 12:36:15;;;;;;;7.80;4.90;;;;;;;;;;5015095;28;20451;-69
2023/05/11 12:38:45;;;;;;;4.33;3.93;;;;;;;;;;5014490;28;20532;-70
2023/05/11 12:41:12;;;;;;;3.90;3.60;;;;;;;;;;5014405;28;20450;-70
2023/05/11 12:43:39;;;;;;;3.90;3.60;;;;;;;;;;5014564;28;20451;-70
2023/05/11 12:46:08;;;;;;;6.10;3.80;;;;;;;;;;5014653;28;20447;-70
2023/05/11 12:48:35;;;;;;;10.13;3.43;;;;;;;;;;5014314;28;20443;-69
2023/05/11 12:51:02;;;;;;;3.80;3.50;;;;;;;;;;5014071;28;20450;-69
2023/05/11 12:53:35;;;;;;;3.80;3.50;;;;;;;;;;5014186;28;20475;-69
2023/05/11 12:56:03;;;;;;;4.63;4.13;;;;;;;;;;5013989;28;20998;-70
2023/05/11 12:58:36;;;;;;;3.43;3.23;;;;;;;;;;5014167;28;20443;-71
2023/05/11 13:01:03;;;;;;;5.50;3.93;;;;;;;;;;5014095;28;20905;-70
2023/05/11 13:03:34;;;;;;;6.43;5.77;;;;;;;;;;5014311;28;20446;-70
2023/05/11 13:06:07;;;;;;;7.77;7.00;;;;;;;;;;5014478;28;20469;-70
2023/05/11 13:08:35;;;;;;;4.33;3.97;;;;;;;;;;5013682;28;20458;-70
2023/05/11 13:11:17;;;;;;;3.87;3.30;;;;;;;;;;5014028;28;20458;-70
2023/05/11 13:13:45;;;;;;;4.50;4.10;;;;;;;;;;5013982;28;20447;-70
2023/05/11 13:16:12;;;;;;;3.80;3.40;;;;;;;;;;5014055;28;20531;-70
2023/05/11 13:18:57;;;;;;;3.63;3.43;;;;;;;;;;5013876;28;20445;-70
2023/05/11 13:21:24;;;;;;;3.57;3.37;;;;;;;;;;5013534;28;20988;-70
2023/05/11 13:23:53;;;;;;;3.60;3.30;;;;;;;;;;5013997;28;20446;-70
2023/05/11 13:26:22;;;;;;;3.03;2.83;;;;;;;;;;5012523;28;20912;-69
2023/05/11 13:28:50;;;;;;;4.13;3.40;;;;;;;;;;5013518;28;20456;-70
2023/05/11 13:31:18;;;;;;;3.63;3.37;;;;;;;;;;5013557;28;20462;-70
2023/05/11 13:33:46;;;;;;;5.43;3.93;;;;;;;;;;5013561;28;20448;-69
2023/05/11 13:36:14;;;;;;;5.07;4.67;;;;;;;;;;5013409;28;20565;-71
2023/05/11 13:38:41;;;;;;;3.97;3.67;;;;;;;;;;5013140;28;20569;-69
2023/05/11 13:41:08;;;;;;;3.83;3.53;;;;;;;;;;5013380;28;20449;-70
2023/05/11 13:43:36;;;;;;;3.70;3.40;;;;;;;;;;5013463;28;20490;-72
2023/05/11 13:46:03;;;;;;;4.73;4.33;;;;;;;;;;5013767;28;20460;-71
2023/05/11 13:48:31;;;;;;;4.70;4.30;;;;;;;;;;5013552;28;20444;-71
2023/05/11 13:50:59;;;;;;;4.23;3.83;;;;;;;;;;5013154;28;20450;-72
2023/05/11 13:53:26;;;;;;;6.50;4.70;;;;;;;;;;5013263;28;20457;-72
2023/05/11 13:55:54;;;;;;;5.10;4.60;;;;;;;;;;5013204;28;20494;-72
2023/05/11 13:58:21;;;;;;;9.60;8.80;;;;;;;;;;5013767;28;20440;-70
2023/05/11 14:00:48;;;;;;;6.50;5.90;;;;;;;;;;5013033;28;20447;-72
2023/05/11 14:03:15;;;;;;;5.70;5.30;;;;;;;;;;5013053;28;20451;-73
2023/05/11 14:05:42;;;;;;;5.40;5.00;;;;;;;;;;5012940;28;20451;-71
2023/05/11 14:08:11;;;;;;;5.43;5.00;;;;;;;;;;5013398;28;21024;-71
2023/05/11 14:10:38;;;;;;;5.47;5.07;;;;;;;;;;5013192;28;20457;-72
2023/05/11 14:13:06;;;;;;;5.90;5.40;;;;;;;;;;5013268;28;20434;-72
2023/05/11 14:15:33;;;;;;;5.03;4.60;;;;;;;;;;5013118;28;20819;-71
2023/05/11 14:18:02;;;;;;;5.10;4.70;;;;;;;;;;5012922;28;20439;-72
2023/05/11 14:20:29;;;;;;;6.80;6.00;;;;;;;;;;5013164;28;20842;-72
2023/05/11 14:22:57;;;;;;;7.03;6.33;;;;;;;;;;5012905;28;20445;-72
2023/05/11 14:25:25;;;;;;;6.90;6.40;;;;;;;;;;5012629;28;20500;-72
2023/05/11 14:27:53;;;;;;;8.73;8.00;;;;;;;;;;5013102;28;20446;-72
2023/05/11 14:30:20;;;;;;;7.70;7.00;;;;;;;;;;5013134;28;20455;-72
2023/05/11 14:32:48;;;;;;;7.07;6.20;;;;;;;;;;5012819;28;20457;-71
2023/05/11 14:35:15;;;;;;;8.70;7.90;;;;;;;;;;5012874;28;20484;-72